Time;durP1;ratioP1;P1;durP2;ratioP2;P2;SDS_P1;SDS_P2;PMS_P1;PMS_P2;Temp;Humidity;BMP_temperature;BMP_pressure;BME280_temperature;BME280_humidity;BME280_pressure;Samples;Min_cycle;Max_cycle;Signal;HPM_P1;HPM_P2
2022/05/30 00:00:44;;;;;;;3.70;1.50;;;;;;;16.78;45.89;100254.43;1757380;82;21594;-59
2022/05/30 00:03:13;;;;;;;5.08;1.60;;;;;;;16.78;45.89;100254.97;1757379;80;21166;-60
2022/05/30 00:05:47;;;;;;;2.27;1.60;;;;;;;16.80;45.96;100255.57;1757541;82;21119;-60
2022/05/30 00:08:17;;;;;;;3.60;1.55;;;;;;;16.80;46.23;100255.03;1757103;82;21126;-59
2022/05/30 00:10:48;;;;;;;3.45;1.60;;;;;;;16.78;46.49;100258.58;1757167;82;21154;-60
2022/05/30 00:13:17;;;;;;;4.95;2.00;;;;;;;16.75;46.66;100254.91;1757430;82;21186;-59
2022/05/30 00:15:46;;;;;;;2.70;1.70;;;;;;;16.74;46.72;100257.92;1757177;82;21087;-59
2022/05/30 00:18:15;;;;;;;5.60;1.70;;;;;;;16.72;46.85;100249.02;1757235;82;21214;-60
2022/05/30 00:20:45;;;;;;;2.92;1.65;;;;;;;16.69;47.10;100244.81;1757361;82;21202;-60
2022/05/30 00:23:14;;;;;;;6.35;1.80;;;;;;;16.67;47.21;100244.22;1757426;82;21122;-60
2022/05/30 00:25:43;;;;;;;3.15;1.70;;;;;;;16.67;47.38;100240.06;1757209;82;21608;-59
2022/05/30 00:28:12;;;;;;;4.15;1.82;;;;;;;16.68;47.58;100240.91;1757513;82;21210;-59
2022/05/30 00:30:44;;;;;;;3.02;1.75;;;;;;;16.68;47.73;100247.28;1757398;80;21134;-59
2022/05/30 00:33:13;;;;;;;3.35;1.80;;;;;;;16.67;47.91;100244.75;1757454;80;21166;-60
2022/05/30 00:35:44;;;;;;;3.10;1.80;;;;;;;16.65;48.18;100233.06;1737218;82;21198;-60
2022/05/30 00:38:13;;;;;;;3.00;1.65;;;;;;;16.64;48.32;100236.36;1753967;82;21098;-59
2022/05/30 00:40:42;;;;;;;3.45;1.70;;;;;;;16.65;48.63;100249.66;1754205;82;21150;-59
2022/05/30 00:43:33;;;;;;;3.70;1.80;;;;;;;16.63;48.85;100234.69;1754113;81;21111;-59
2022/05/30 00:46:06;;;;;;;3.95;1.70;;;;;;;16.61;49.11;100235.47;1753966;82;21142;-59
2022/05/30 00:48:38;;;;;;;2.90;1.60;;;;;;;16.58;49.36;100234.56;1754371;82;21154;-59
2022/05/30 00:51:23;;;;;;;2.55;1.37;;;;;;;16.58;49.74;100226.27;1754055;82;21111;-59
2022/05/30 00:53:55;;;;;;;4.20;1.60;;;;;;;16.60;50.05;100231.56;1753037;82;21159;-61
2022/05/30 00:56:27;;;;;;;4.35;1.70;;;;;;;16.61;50.54;100224.95;1754285;82;21123;-59
2022/05/30 00:58:57;;;;;;;3.67;1.77;;;;;;;16.62;51.14;100219.71;1754004;81;21111;-60
2022/05/30 01:01:28;;;;;;;2.47;1.50;;;;;;;16.60;51.38;100208.05;1753930;82;21154;-60
2022/05/30 01:06:48;;;;;;;5.37;2.00;;;;;;;16.56;52.34;100177.27;1753904;82;21187;-60
2022/05/30 01:09:22;;;;;;;4.35;1.80;;;;;;;16.54;52.73;100178.05;1753953;82;21531;-60
2022/05/30 01:12:00;;;;;;;3.92;1.70;;;;;;;16.54;53.15;100169.75;1753971;80;21099;-60
2022/05/30 01:14:32;;;;;;;4.17;1.90;;;;;;;16.53;53.76;100165.30;1754055;82;21602;-60
2022/05/30 01:17:08;;;;;;;3.17;1.82;;;;;;;16.50;54.18;100157.48;1754008;82;21162;-60
2022/05/30 01:20:05;;;;;;;3.10;2.10;;;;;;;16.51;54.19;100153.64;1753980;82;21138;-58
2022/05/30 01:22:53;;;;;;;5.87;2.00;;;;;;;16.49;54.66;100150.27;1754086;81;21126;-58
2022/05/30 01:25:34;;;;;;;7.43;2.43;;;;;;;16.45;54.99;100131.10;1728177;82;21158;-59
2022/05/30 01:28:48;;;;;;;3.72;2.27;;;;;;;16.41;55.64;100123.83;1753231;81;21197;-58
2022/05/30 01:31:17;;;;;;;4.72;2.05;;;;;;;16.42;55.90;100134.34;1754110;82;21055;-59
2022/05/30 01:33:47;;;;;;;6.65;2.47;;;;;;;16.39;55.90;100133.45;1753910;82;21444;-58
2022/05/30 01:36:16;;;;;;;5.70;2.37;;;;;;;16.40;56.06;100140.67;1746098;82;21095;-59
2022/05/30 01:38:45;;;;;;;3.90;2.45;;;;;;;16.38;56.30;100142.30;1743974;82;21067;-61
2022/05/30 01:41:16;;;;;;;5.08;2.52;;;;;;;16.33;56.60;100135.80;1743806;82;21005;-59
2022/05/30 01:43:45;;;;;;;5.85;2.85;;;;;;;16.30;56.76;100136.29;1743851;82;21039;-61
2022/05/30 01:46:19;;;;;;;6.22;2.47;;;;;;;16.27;57.04;100132.63;1743772;82;21230;-59
2022/05/30 01:48:52;;;;;;;3.98;2.20;;;;;;;16.23;57.36;100139.15;1743926;82;21036;-60
2022/05/30 01:51:23;;;;;;;4.22;2.27;;;;;;;16.17;57.62;100142.33;1743746;81;21016;-59
2022/05/30 01:53:54;;;;;;;4.33;2.37;;;;;;;16.12;58.07;100150.51;1743863;82;21051;-60
2022/05/30 01:56:26;;;;;;;5.42;2.55;;;;;;;16.04;58.25;100148.10;1743765;82;21076;-60
2022/05/30 01:58:56;;;;;;;4.72;2.47;;;;;;;15.99;58.49;100152.13;1743817;82;20996;-59
2022/05/30 02:01:45;;;;;;;5.75;2.27;;;;;;;15.95;58.79;100148.16;1743854;82;20993;-59
2022/05/30 02:04:15;;;;;;;3.85;2.33;;;;;;;15.87;59.12;100152.66;1743722;82;21451;-60
2022/05/30 02:06:44;;;;;;;3.37;2.37;;;;;;;15.80;59.67;100145.02;1733162;82;21055;-59
2022/05/30 02:09:13;;;;;;;3.92;2.40;;;;;;;15.73;59.97;100148.43;1743705;82;21095;-60
2022/05/30 02:11:42;;;;;;;3.92;2.37;;;;;;;15.67;60.21;100145.23;1743809;82;21020;-59
2022/05/30 02:14:17;;;;;;;6.53;2.15;;;;;;;15.66;60.25;100144.94;1743348;81;21024;-59
2022/05/30 02:17:01;;;;;;;5.28;2.27;;;;;;;15.65;60.68;100131.66;1743994;82;21502;-60
2022/05/30 02:19:33;;;;;;;4.90;2.20;;;;;;;15.65;61.53;100129.44;1743571;82;21444;-59
2022/05/30 02:22:07;;;;;;;4.22;2.08;;;;;;;15.67;61.69;100126.75;1743723;81;21059;-60
2022/05/30 02:24:36;;;;;;;3.92;2.08;;;;;;;15.74;62.22;100130.23;1743899;81;21047;-60
2022/05/30 02:27:11;;;;;;;4.12;2.40;;;;;;;15.78;62.56;100131.98;1743921;81;21032;-59
2022/05/30 02:29:43;;;;;;;5.58;2.22;;;;;;;15.81;62.72;100129.59;1743910;82;21022;-58
2022/05/30 02:32:13;;;;;;;5.90;2.17;;;;;;;15.87;62.96;100136.61;1743863;82;21091;-60
2022/05/30 02:37:31;;;;;;;2.58;2.17;;;;;;;15.93;63.33;100108.03;1744225;82;21020;-59
2022/05/30 02:40:02;;;;;;;8.65;2.70;;;;;;;15.96;63.46;100111.69;1743642;81;21020;-60
2022/05/30 02:42:40;;;;;;;4.65;2.40;;;;;;;15.98;63.98;100110.91;1742215;82;21052;-59
2022/05/30 02:45:10;;;;;;;5.33;2.58;;;;;;;15.98;64.77;100108.99;1744105;82;21070;-60
2022/05/30 02:47:41;;;;;;;6.42;2.50;;;;;;;15.99;64.78;100107.91;1743978;81;21451;-60
2022/05/30 02:50:12;;;;;;;3.75;2.50;;;;;;;16.04;64.71;100127.91;1743889;81;21020;-60
2022/05/30 02:52:43;;;;;;;3.77;2.22;;;;;;;16.06;65.02;100136.81;1743967;82;21456;-59
2022/05/30 02:55:14;;;;;;;5.75;2.35;;;;;;;16.05;65.72;100133.20;1743977;81;21012;-60
2022/05/30 02:57:48;;;;;;;4.20;2.33;;;;;;;16.00;65.80;100138.61;1743498;81;21008;-60
2022/05/30 03:00:18;;;;;;;4.92;2.55;;;;;;;16.00;66.09;100133.08;1734253;82;21095;-60
2022/05/30 03:02:49;;;;;;;4.37;2.70;;;;;;;15.99;66.36;100134.16;1744041;81;21052;-60
2022/05/30 03:05:18;;;;;;;3.00;2.50;;;;;;;15.98;66.81;100151.82;1743877;81;21036;-59
2022/05/30 03:07:46;;;;;;;5.08;2.40;;;;;;;15.95;66.92;100157.83;1743945;82;21020;-59
2022/05/30 03:10:29;;;;;;;3.52;2.05;;;;;;;15.95;67.01;100152.30;1738838;81;21036;-58
2022/05/30 03:13:00;;;;;;;5.75;2.65;;;;;;;15.95;67.13;100150.08;1744165;82;21063;-60
2022/05/30 03:15:30;;;;;;;5.47;2.60;;;;;;;15.94;67.39;100156.69;1744146;82;21016;-59
2022/05/30 03:17:59;;;;;;;4.85;2.90;;;;;;;15.94;67.46;100174.65;1743898;82;21008;-60
2022/05/30 03:20:29;;;;;;;4.65;2.60;;;;;;;15.94;67.72;100181.55;1744258;81;21040;-60
2022/05/30 03:22:58;;;;;;;4.00;2.65;;;;;;;15.90;67.86;100183.11;1733461;82;20996;-59
2022/05/30 03:25:29;;;;;;;4.05;2.60;;;;;;;15.87;68.03;100178.91;1743292;81;21507;-60
2022/05/30 03:28:02;;;;;;;4.12;2.77;;;;;;;15.85;68.09;100186.59;1743922;81;21055;-61
2022/05/30 03:30:36;;;;;;;5.80;2.58;;;;;;;15.83;68.27;100189.59;1744266;82;21071;-60
2022/05/30 03:33:04;;;;;;;4.20;2.85;;;;;;;15.82;68.52;100182.92;1733676;82;21063;-60
2022/05/30 03:35:35;;;;;;;4.47;2.62;;;;;;;15.79;68.66;100177.87;1734823;82;21047;-62
2022/05/30 03:38:07;;;;;;;3.33;2.80;;;;;;;15.77;68.88;100167.59;1749583;81;21495;-60
2022/05/30 03:40:56;;;;;;;4.03;3.05;;;;;;;15.78;69.03;100159.07;1751850;80;21510;-59
2022/05/30 03:43:27;;;;;;;6.33;2.80;;;;;;;15.76;69.28;100151.56;1749787;81;21063;-59
2022/05/30 03:45:59;;;;;;;4.47;3.00;;;;;;;15.73;69.38;100150.66;1732291;82;21012;-61
2022/05/30 03:48:28;;;;;;;4.55;3.20;;;;;;;15.71;69.74;100150.59;1752084;82;21052;-59
2022/05/30 03:50:57;;;;;;;4.72;3.10;;;;;;;15.72;69.67;100138.46;1752123;82;21030;-60
2022/05/30 03:53:27;;;;;;;5.42;3.10;;;;;;;15.74;69.60;100137.69;1752027;82;21071;-59
2022/05/30 03:55:56;;;;;;;5.00;3.45;;;;;;;15.75;69.81;100124.17;1752164;82;21084;-61
2022/05/30 03:58:24;;;;;;;5.58;4.08;;;;;;;15.75;70.05;100133.30;1752226;82;21008;-60
2022/05/30 04:00:53;;;;;;;6.28;3.33;;;;;;;15.74;69.90;100126.09;1751860;82;21458;-60
2022/05/30 04:03:24;;;;;;;5.40;4.17;;;;;;;15.75;69.95;100116.73;1751884;82;21008;-60
2022/05/30 04:05:53;;;;;;;5.53;3.77;;;;;;;15.77;69.90;100115.11;1751832;82;21016;-59
2022/05/30 04:08:22;;;;;;;5.58;3.05;;;;;;;15.78;70.02;100115.41;1752035;82;21031;-60
2022/05/30 04:11:01;;;;;;;7.85;4.60;;;;;;;15.83;70.15;100124.66;1730972;83;21448;-60
2022/05/30 04:13:44;;;;;;;7.58;3.33;;;;;;;15.84;70.51;100137.40;1748524;82;21016;-60
2022/05/30 04:16:21;;;;;;;5.28;3.45;;;;;;;15.87;70.81;100133.86;1751688;81;21071;-59
2022/05/30 04:18:51;;;;;;;5.75;3.87;;;;;;;15.87;71.21;100133.31;1751868;82;21079;-60
2022/05/30 04:21:20;;;;;;;4.47;3.72;;;;;;;15.86;71.34;100123.34;1751865;82;21047;-59
2022/05/30 04:23:51;;;;;;;6.45;3.98;;;;;;;15.83;71.66;100119.67;1751851;82;21055;-59
2022/05/30 04:26:22;;;;;;;4.25;3.50;;;;;;;15.81;71.90;100117.69;1751880;80;21051;-58
2022/05/30 04:28:53;;;;;;;6.35;3.75;;;;;;;15.83;72.16;100105.33;1733354;82;21130;-59
2022/05/30 04:31:34;;;;;;;8.08;3.75;;;;;;;15.83;72.30;100105.33;1744697;82;21028;-61
2022/05/30 04:34:04;;;;;;;5.85;4.25;;;;;;;15.82;72.59;100098.11;1751810;80;21619;-60
2022/05/30 04:36:33;;;;;;;6.03;4.47;;;;;;;15.82;73.02;100112.47;1747856;81;21086;-60
2022/05/30 04:39:03;;;;;;;7.22;3.85;;;;;;;15.79;73.36;100122.62;1743623;82;20981;-60
2022/05/30 04:41:38;;;;;;;6.25;3.75;;;;;;;15.79;73.60;100130.91;1744071;82;21059;-60
2022/05/30 04:44:24;;;;;;;4.97;3.85;;;;;;;15.79;73.58;100130.36;1744156;82;21052;-60
2022/05/30 04:47:07;;;;;;;7.55;4.12;;;;;;;15.82;73.63;100133.19;1744106;82;21079;-60
2022/05/30 04:49:37;;;;;;;7.78;4.58;;;;;;;15.80;73.87;100138.11;1743710;81;21059;-60
2022/05/30 04:52:07;;;;;;;6.62;4.08;;;;;;;15.79;74.07;100145.56;1743855;82;21009;-59
2022/05/30 04:54:36;;;;;;;6.72;4.08;;;;;;;15.83;74.03;100159.20;1743855;82;21024;-60
2022/05/30 04:57:08;;;;;;;4.40;3.62;;;;;;;15.90;74.00;100159.63;1743825;82;21463;-60
2022/05/30 04:59:40;;;;;;;4.85;3.67;;;;;;;15.94;74.54;100160.83;1743110;81;21012;-60
2022/05/30 05:02:13;;;;;;;6.20;3.98;;;;;;;15.95;75.11;100156.45;1743551;82;21047;-59
2022/05/30 05:04:44;;;;;;;6.00;3.52;;;;;;;15.95;75.50;100166.66;1743523;81;21020;-60
2022/05/30 05:07:13;;;;;;;6.28;3.55;;;;;;;15.94;76.01;100187.92;1733442;82;21463;-59
2022/05/30 05:09:51;;;;;;;6.03;3.08;;;;;;;15.94;75.73;100201.73;1743425;81;21124;-60
2022/05/30 05:12:23;;;;;;;11.43;3.65;;;;;;;15.94;76.12;100211.41;1743512;82;20980;-59
2022/05/30 05:15:11;;;;;;;5.62;3.08;;;;;;;15.94;76.39;100242.34;1743931;82;20984;-61
2022/05/30 05:17:42;;;;;;;4.00;3.27;;;;;;;15.84;77.07;100242.92;1742227;81;21067;-61
2022/05/30 05:20:12;;;;;;;5.08;3.75;;;;;;;15.75;78.35;100248.48;1743806;82;21086;-60
2022/05/30 05:22:41;;;;;;;6.62;3.10;;;;;;;15.65;79.62;100246.29;1744060;82;21132;-61
2022/05/30 05:25:11;;;;;;;6.70;3.20;;;;;;;15.58;80.66;100234.46;1743804;81;21009;-61
2022/05/30 05:27:46;;;;;;;4.20;3.25;;;;;;;15.55;81.49;100229.38;1743875;82;21047;-61
2022/05/30 05:30:15;;;;;;;7.78;3.95;;;;;;;15.48;81.91;100243.28;1733436;82;21092;-61
2022/05/30 05:32:46;;;;;;;5.45;3.45;;;;;;;15.43;83.06;100238.99;1744117;82;21040;-61
2022/05/30 05:35:16;;;;;;;4.83;2.95;;;;;;;15.41;83.77;100235.62;1744138;82;21055;-61
2022/05/30 05:37:47;;;;;;;5.90;3.10;;;;;;;15.38;84.09;100240.77;1743819;82;21024;-60
2022/05/30 05:40:40;;;;;;;4.55;3.00;;;;;;;15.33;84.30;100234.56;1744147;82;21024;-61
2022/05/30 05:43:09;;;;;;;5.53;3.87;;;;;;;15.29;84.87;100226.45;1744034;82;21016;-60
2022/05/30 05:45:41;;;;;;;5.75;3.67;;;;;;;15.26;85.61;100222.77;1743900;81;21012;-62
2022/05/30 05:48:11;;;;;;;5.42;3.30;;;;;;;15.26;86.18;100221.39;1744000;81;21056;-61
2022/05/30 05:50:41;;;;;;;5.65;4.03;;;;;;;15.21;86.12;100233.13;1744066;82;21024;-61
2022/05/30 05:53:11;;;;;;;7.70;4.55;;;;;;;15.18;86.38;100236.89;1743861;82;21478;-61
2022/05/30 05:55:42;;;;;;;4.78;3.37;;;;;;;15.16;86.44;100237.66;1744090;82;21031;-61
2022/05/30 05:58:11;;;;;;;5.45;3.30;;;;;;;15.13;86.62;100222.95;1743795;81;21040;-60
2022/05/30 06:00:42;;;;;;;9.10;4.15;;;;;;;15.15;87.17;100231.84;1743783;81;21032;-62
2022/05/30 06:03:11;;;;;;;5.97;3.90;;;;;;;15.16;87.51;100225.24;1743703;82;20996;-61
2022/05/30 06:05:43;;;;;;;7.10;3.83;;;;;;;15.19;88.05;100219.26;1742394;82;21052;-60
2022/05/30 06:08:17;;;;;;;6.70;3.40;;;;;;;15.20;88.51;100216.80;1742423;81;21044;-62
2022/05/30 06:11:51;;;;;;;6.10;3.17;;;;;;;15.15;88.75;100216.66;1741739;82;21028;-61
2022/05/30 06:13:30;;;;;;;4.30;3.02;;;;;;;15.06;88.89;100222.19;1741298;81;21043;-61
2022/05/30 06:16:00;;;;;;;5.62;3.80;;;;;;;15.00;89.89;100223.11;1733266;82;21024;-60
2022/05/30 06:18:35;;;;;;;5.35;3.25;;;;;;;14.99;90.72;100233.84;1743097;81;21024;-62
2022/05/30 06:21:04;;;;;;;6.90;3.62;;;;;;;14.97;91.40;100241.51;1743835;81;21459;-61
2022/05/30 06:23:36;;;;;;;9.05;3.30;;;;;;;14.89;91.70;100239.33;1743721;81;21460;-61
2022/05/30 06:26:08;;;;;;;6.75;2.70;;;;;;;14.88;92.32;100230.75;1744109;82;21067;-61
2022/05/30 06:28:41;;;;;;;4.30;3.02;;;;;;;14.86;92.58;100231.52;1743124;81;21076;-62
2022/05/30 06:31:18;;;;;;;6.53;3.33;;;;;;;14.80;92.94;100225.54;1743954;82;21015;-62
2022/05/30 06:33:49;;;;;;;4.85;2.98;;;;;;;14.73;93.21;100220.63;1743935;81;21032;-61
2022/05/30 06:36:24;;;;;;;8.28;2.75;;;;;;;14.68;93.69;100221.86;1742073;81;21166;-61
2022/05/30 06:38:53;;;;;;;8.90;3.33;;;;;;;14.65;94.07;100211.28;1743927;82;21487;-60
2022/05/30 06:41:28;;;;;;;4.33;2.37;;;;;;;14.66;94.51;100196.42;1743867;81;21012;-63
2022/05/30 06:44:04;;;;;;;4.33;2.80;;;;;;;14.62;94.51;100182.80;1744112;82;21044;-62
2022/05/30 06:46:51;;;;;;;6.05;2.47;;;;;;;14.55;94.79;100187.53;1744241;82;21016;-62
2022/05/30 06:49:39;;;;;;;4.78;2.77;;;;;;;14.54;95.36;100173.45;1743862;82;21460;-61
2022/05/30 06:52:11;;;;;;;3.50;2.60;;;;;;;14.56;95.65;100171.30;1743947;81;21019;-60
2022/05/30 06:54:40;;;;;;;5.03;2.80;;;;;;;14.60;96.09;100160.12;1744008;81;21016;-62
2022/05/30 07:00:01;;;;;;;5.35;2.67;;;;;;;14.54;95.92;100118.30;1743892;81;21063;-62
2022/05/30 07:02:31;;;;;;;4.72;2.12;;;;;;;14.49;95.68;100133.31;1744196;82;21063;-61
2022/05/30 07:05:06;;;;;;;3.02;2.27;;;;;;;14.47;95.71;100132.70;1742379;82;21103;-61
2022/05/30 07:07:56;;;;;;;4.85;2.67;;;;;;;14.41;95.76;100119.27;1744273;82;21011;-62
2022/05/30 07:10:32;;;;;;;5.42;3.12;;;;;;;14.38;95.91;100103.73;1743552;81;21007;-61
2022/05/30 07:13:06;;;;;;;5.12;3.20;;;;;;;14.36;96.31;100121.03;1743466;81;21541;-60
2022/05/30 07:15:37;;;;;;;7.22;5.30;;;;;;;14.33;96.56;100099.44;1743949;81;21014;-62
2022/05/30 07:18:11;;;;;;;9.53;5.65;;;;;;;14.27;96.67;100092.37;1743746;82;21031;-62
2022/05/30 07:20:51;;;;;;;9.45;6.47;;;;;;;14.32;97.20;100092.25;1743915;82;21027;-62
2022/05/30 07:23:34;;;;;;;13.30;9.90;;;;;;;14.34;97.27;100089.56;1735178;82;21004;-62
2022/05/30 07:26:22;;;;;;;12.18;9.15;;;;;;;14.34;97.46;100088.19;1744098;82;21039;-61
2022/05/30 07:29:11;;;;;;;10.85;7.75;;;;;;;14.36;97.62;100086.58;1744158;82;21491;-62
2022/05/30 07:32:00;;;;;;;8.55;6.40;;;;;;;14.36;97.73;100077.77;1744116;82;21040;-62
2022/05/30 07:34:49;;;;;;;10.48;6.70;;;;;;;14.39;97.93;100082.83;1744052;82;21100;-62
2022/05/30 07:37:31;;;;;;;6.92;4.97;;;;;;;14.40;98.03;100060.23;1746444;82;21036;-61
2022/05/30 07:40:09;;;;;;;8.05;5.15;;;;;;;14.40;98.27;100064.37;1748006;81;21325;-62
2022/05/30 07:42:48;;;;;;;7.75;4.92;;;;;;;14.39;98.10;100064.06;1748198;82;21506;-62
2022/05/30 07:45:25;;;;;;;9.55;4.28;;;;;;;14.44;98.52;100061.49;1748377;82;21016;-61
2022/05/30 07:48:09;;;;;;;8.45;4.28;;;;;;;14.43;98.31;100057.89;1748692;81;21407;-62
2022/05/30 07:50:57;;;;;;;4.53;3.50;;;;;;;14.43;98.41;100062.03;1751938;80;21450;-63
2022/05/30 07:53:28;;;;;;;4.78;3.17;;;;;;;14.49;98.73;100065.77;1708483;84;21056;-62
2022/05/30 07:56:06;;;;;;;17.82;12.73;;;;;;;14.50;98.48;100070.22;1778847;80;20976;-63
2022/05/30 07:58:34;;;;;;;7.58;3.90;;;;;;;14.50;98.48;100075.19;1761726;79;21010;-64
2022/05/30 08:01:05;;;;;;;5.90;4.05;;;;;;;14.54;98.59;100078.33;1768495;80;21000;-63
2022/05/30 08:03:35;;;;;;;5.37;4.05;;;;;;;14.56;98.49;100086.67;1763049;80;21087;-63
2022/05/30 08:06:13;;;;;;;7.00;4.03;;;;;;;14.60;98.68;100089.80;1755744;81;21047;-64
2022/05/30 08:08:56;;;;;;;6.60;4.62;;;;;;;14.61;98.34;100095.63;1711407;84;21190;-64
2022/05/30 08:11:25;;;;;;;7.03;5.58;;;;;;;14.60;97.88;100098.08;1649546;86;21025;-64
2022/05/30 08:13:56;;;;;;;9.55;6.15;;;;;;;14.60;97.91;100095.32;1657307;85;21219;-63
2022/05/30 08:16:27;;;;;;;11.93;7.00;;;;;;;14.62;97.80;100105.59;1703382;84;21091;-64
2022/05/30 08:18:58;;;;;;;11.03;6.33;;;;;;;14.63;97.67;100104.51;1672138;85;21072;-63
2022/05/30 08:21:30;;;;;;;10.95;7.75;;;;;;;14.65;97.53;100113.39;1679586;84;21367;-64
2022/05/30 08:23:59;;;;;;;12.35;8.35;;;;;;;14.66;97.42;100103.20;1675246;85;21016;-63
2022/05/30 08:26:29;;;;;;;13.48;8.70;;;;;;;14.66;97.44;100090.80;1702783;84;21056;-63
2022/05/30 08:29:02;;;;;;;11.78;8.00;;;;;;;14.70;97.44;100083.74;1667358;85;21495;-63
2022/05/30 08:31:31;;;;;;;14.33;7.95;;;;;;;14.77;97.60;100081.20;1703059;84;21540;-62
2022/05/30 08:34:04;;;;;;;13.40;7.53;;;;;;;14.84;97.64;100090.77;1628094;85;21476;-63
2022/05/30 08:36:39;;;;;;;12.13;7.67;;;;;;;14.91;97.71;100115.80;1703098;84;21110;-64
2022/05/30 08:41:57;;;;;;;10.43;6.10;;;;;;;14.95;97.26;100118.94;1682742;85;21108;-63
2022/05/30 08:44:44;;;;;;;10.28;5.17;;;;;;;14.97;97.04;100109.08;1714765;83;21042;-63
2022/05/30 08:47:56;;;;;;;7.90;4.83;;;;;;;15.02;97.15;100114.73;1784556;80;21408;-65
2022/05/30 08:50:31;;;;;;;10.03;5.10;;;;;;;15.05;97.30;100117.03;1765377;80;21071;-63
2022/05/30 08:53:16;;;;;;;8.15;4.45;;;;;;;15.08;97.09;100115.18;1730902;82;21464;-65
2022/05/30 08:56:12;;;;;;;7.35;4.55;;;;;;;15.09;96.91;100100.31;1655274;86;21060;-64
2022/05/30 08:59:10;;;;;;;10.15;5.28;;;;;;;15.10;96.92;100100.08;1592429;90;21105;-64
2022/05/30 09:02:12;;;;;;;8.95;5.10;;;;;;;15.13;96.97;100099.60;1672788;85;21150;-64
2022/05/30 09:04:51;;;;;;;9.03;4.42;;;;;;;15.17;97.12;100088.94;1665192;85;21052;-63
2022/05/30 09:07:34;;;;;;;7.03;4.40;;;;;;;15.17;96.71;100106.88;1648353;87;21057;-63
2022/05/30 09:10:26;;;;;;;9.83;5.10;;;;;;;15.16;96.38;100101.05;1627542;87;21103;-66
2022/05/30 09:13:06;;;;;;;7.28;4.72;;;;;;;15.18;96.18;100109.40;1648253;87;21662;-64
2022/05/30 09:15:54;;;;;;;10.50;5.45;;;;;;;15.23;96.21;100105.94;1647461;87;21045;-63
2022/05/30 09:18:51;;;;;;;8.45;4.53;;;;;;;15.30;96.34;100098.39;1697403;84;21013;-64
2022/05/30 09:21:21;;;;;;;7.70;4.62;;;;;;;15.39;96.27;100090.61;1753594;81;21392;-62
2022/05/30 09:23:51;;;;;;;8.28;4.90;;;;;;;15.38;95.56;100090.31;1735293;82;21051;-67
2022/05/30 09:26:25;;;;;;;9.90;5.00;;;;;;;15.43;95.66;100091.81;1717725;83;20991;-63
2022/05/30 09:29:18;;;;;;;9.68;4.87;;;;;;;15.50;95.80;100096.16;1734062;80;21071;-62
2022/05/30 09:32:14;;;;;;;8.25;4.90;;;;;;;15.60;95.68;100101.66;1739777;82;21043;-62
2022/05/30 09:34:54;;;;;;;7.70;4.92;;;;;;;15.65;95.04;100090.78;1664704;85;21083;-62
2022/05/30 09:37:41;;;;;;;6.92;4.62;;;;;;;15.78;95.56;100091.39;1754835;80;21086;-63
2022/05/30 09:40:16;;;;;;;9.68;4.95;;;;;;;15.91;95.70;100080.64;1756203;81;21564;-61
2022/05/30 09:42:55;;;;;;;10.60;6.40;;;;;;;16.07;95.87;100088.20;1755852;81;21487;-63
2022/05/30 09:45:29;;;;;;;;;;;;;;;16.23;96.10;100087.16;1720944;82;21029;-61
2022/05/30 09:48:14;;;;;;;12.58;4.78;;;;;;;16.39;95.68;100082.30;1720950;83;20464;-63
2022/05/30 09:50:52;;;;;;;9.13;5.00;;;;;;;16.47;94.13;100073.63;1720532;83;21035;-62
2022/05/30 09:53:42;;;;;;;;;;;;;;;16.54;93.77;100068.79;1723588;82;21022;-63
2022/05/30 09:56:13;;;;;;;8.03;4.90;;;;;;;16.65;92.96;100065.18;1720979;82;20162;-63
2022/05/30 09:59:05;;;;;;;7.67;5.87;;;;;;;16.68;91.42;100064.69;1694730;83;21066;-63
2022/05/30 10:01:50;;;;;;;9.45;5.33;;;;;;;16.72;91.03;100066.42;1690006;85;21536;-62
2022/05/30 10:04:41;;;;;;;8.63;5.15;;;;;;;16.73;90.45;100059.25;1721256;82;21102;-63
2022/05/30 10:07:20;;;;;;;7.97;4.37;;;;;;;16.80;90.52;100066.03;1702646;84;21088;-62
2022/05/30 10:10:06;;;;;;;10.43;5.17;;;;;;;16.85;90.29;100049.52;1702326;84;21280;-62
2022/05/30 10:12:45;;;;;;;10.08;4.67;;;;;;;16.94;90.47;100045.84;1702577;84;21598;-63
2022/05/30 10:15:43;;;;;;;7.22;4.80;;;;;;;16.96;88.84;100053.36;1701707;84;21565;-62
2022/05/30 10:18:19;;;;;;;8.15;5.03;;;;;;;16.97;88.04;100049.50;1680400;84;21044;-63
2022/05/30 10:21:08;;;;;;;8.73;4.80;;;;;;;16.98;87.67;100052.02;1702835;84;21056;-63
2022/05/30 10:31:33;;;;;;;9.80;5.25;;;;;;;17.05;87.11;100038.02;1703220;84;21092;-62
2022/05/30 10:34:15;;;;;;;10.98;5.50;;;;;;;17.06;86.91;100035.55;1702855;84;21084;-62
2022/05/30 10:37:16;;;;;;;8.05;5.17;;;;;;;17.09;86.53;100024.82;1703007;84;21490;-63
2022/05/30 10:40:17;;;;;;;9.10;5.25;;;;;;;17.11;86.55;100032.88;1703016;84;21051;-63
2022/05/30 10:43:02;;;;;;;11.65;5.67;;;;;;;17.10;85.92;100029.81;1703162;84;21467;-63
2022/05/30 10:46:04;;;;;;;12.25;5.42;;;;;;;17.13;86.14;100034.84;1703078;84;21043;-62
2022/05/30 10:48:34;;;;;;;9.30;5.60;;;;;;;17.15;86.47;100018.83;1702776;84;21473;-63
2022/05/30 10:51:22;;;;;;;8.73;5.78;;;;;;;17.17;86.37;100024.11;1702994;84;21455;-62
2022/05/30 10:54:02;;;;;;;11.70;5.90;;;;;;;17.17;86.71;100018.03;1702829;84;21127;-62
2022/05/30 10:56:46;;;;;;;9.45;5.12;;;;;;;17.17;86.89;100022.19;1711927;83;21272;-63
2022/05/30 10:59:40;;;;;;;10.80;5.10;;;;;;;17.19;86.93;100022.77;1728692;83;21056;-63
2022/05/30 11:02:17;;;;;;;9.25;5.10;;;;;;;17.19;86.73;100020.00;1717621;82;21040;-62
2022/05/30 11:04:54;;;;;;;6.45;4.92;;;;;;;17.21;86.73;100015.59;1744948;82;21187;-62
2022/05/30 11:08:05;;;;;;;11.28;5.50;;;;;;;17.20;86.36;100020.30;1721086;83;21019;-62
2022/05/30 11:10:43;;;;;;;7.47;4.83;;;;;;;17.24;86.21;100022.86;1731948;82;21049;-63
2022/05/30 11:13:30;;;;;;;11.48;5.08;;;;;;;17.30;86.12;100024.63;1720675;83;21466;-65
2022/05/30 11:16:43;;;;;;;10.03;5.60;;;;;;;17.33;85.97;100019.97;1646180;87;21607;-65
2022/05/30 11:19:42;;;;;;;8.98;5.33;;;;;;;17.37;85.72;100012.00;1719272;83;21074;-65
2022/05/30 11:22:49;;;;;;;7.05;4.83;;;;;;;17.37;85.08;100005.91;1730131;83;21033;-64
2022/05/30 11:25:36;;;;;;;8.05;5.05;;;;;;;17.35;84.53;100016.41;1720904;83;21094;-64
2022/05/30 11:28:47;;;;;;;8.95;5.65;;;;;;;17.34;84.04;100013.89;1721173;83;21088;-64
2022/05/30 11:31:38;;;;;;;8.75;5.58;;;;;;;17.33;85.05;100015.81;1720832;83;21094;-63
2022/05/30 11:34:25;;;;;;;7.42;5.05;;;;;;;17.35;85.90;100018.33;1731872;83;21474;-64
2022/05/30 11:37:23;;;;;;;7.25;5.30;;;;;;;17.35;86.07;100004.48;1720725;83;21011;-63
2022/05/30 11:40:33;;;;;;;8.30;5.80;;;;;;;17.36;86.44;100003.39;1723772;83;21060;-63
2022/05/30 11:43:27;;;;;;;10.13;6.40;;;;;;;17.37;87.12;99998.16;1629380;88;21122;-62
2022/05/30 11:46:20;;;;;;;11.57;5.80;;;;;;;17.43;87.65;100000.75;1598470;89;21103;-62
2022/05/30 11:49:04;;;;;;;7.97;5.22;;;;;;;17.48;87.61;99995.00;1629411;88;21466;-62
2022/05/30 11:51:44;;;;;;;10.18;5.80;;;;;;;17.50;87.80;99997.81;1597877;90;21047;-63
2022/05/30 11:54:47;;;;;;;10.20;6.40;;;;;;;17.54;87.66;99992.05;1629304;88;21191;-65
2022/05/30 11:57:27;;;;;;;7.75;5.87;;;;;;;17.61;88.08;99993.30;1598425;90;21096;-63
2022/05/30 12:00:11;;;;;;;9.48;5.47;;;;;;;17.70;88.34;99998.73;1651687;87;21109;-62
2022/05/30 12:03:04;;;;;;;11.05;5.45;;;;;;;17.77;88.11;100003.55;1652210;86;21538;-64
2022/05/30 12:06:02;;;;;;;10.32;6.00;;;;;;;17.83;87.20;100013.61;1648903;87;21091;-66
2022/05/30 12:09:01;;;;;;;8.78;5.67;;;;;;;17.91;86.38;100005.41;1642601;87;21337;-65
2022/05/30 12:12:15;;;;;;;15.68;6.05;;;;;;;17.92;85.23;100002.92;1653004;86;21499;-64
2022/05/30 12:15:08;;;;;;;9.23;5.65;;;;;;;17.94;85.02;99998.80;1609130;89;21143;-63
2022/05/30 12:24:28;;;;;;;9.58;5.60;;;;;;;18.06;83.16;100001.45;1646517;87;21532;-65
2022/05/30 12:27:04;;;;;;;13.88;6.33;;;;;;;18.12;82.69;100000.98;1646134;87;21057;-63
2022/05/30 12:29:42;;;;;;;9.78;5.60;;;;;;;18.14;81.31;100007.11;1646952;87;21068;-65
2022/05/30 12:32:29;;;;;;;10.28;5.85;;;;;;;18.17;81.11;100000.50;1646746;87;21092;-63
2022/05/30 12:38:00;;;;;;;13.65;5.72;;;;;;;18.26;81.09;100001.75;1646903;87;21042;-65
2022/05/30 12:40:39;;;;;;;8.80;5.80;;;;;;;18.33;80.03;100008.50;1646795;87;21072;-63